Time;durP1;ratioP1;P1;durP2;ratioP2;P2;SDS_P1;SDS_P2;PMS_P1;PMS_P2;Temp;Humidity;BMP_temperature;BMP_pressure;BME280_temperature;BME280_humidity;BME280_pressure;Samples;Min_cycle;Max_cycle;Signal;HPM_P1;HPM_P2
2023/12/09 00:01:34;;;;;;;;;;;;;;;;;;5003483;28;129267;-74
2023/12/09 00:04:00;;;;;;;;;;;;;;;;;;4996849;28;130497;-75
2023/12/09 00:06:27;;;;;;;;;;;;;;;;;;4996158;28;122995;-75
2023/12/09 00:08:53;;;;;;;;;;;;;;;;;;4999202;28;129596;-75
2023/12/09 00:11:20;;;;;;;;;;;;;;;;;;4999674;28;132307;-75
2023/12/09 00:13:46;;;;;;;;;;;;;;;;;;4998372;28;123755;-74
2023/12/09 00:16:13;;;;;;;;;;;;;;;;;;5008279;28;108091;-75
2023/12/09 00:18:40;;;;;;;;;;;;;;;;;;5002082;28;125868;-74
2023/12/09 00:21:06;;;;;;;;;;;;;;;;;;5000199;28;129791;-75
2023/12/09 00:23:32;;;;;;;;;;;;;;;;;;4999619;28;129553;-74
2023/12/09 00:25:59;;;;;;;;;;;;;;;;;;4997499;28;123026;-74
2023/12/09 00:28:26;;;;;;;;;;;;;;;;;;5005210;28;129014;-73
2023/12/09 00:30:52;;;;;;;;;;;;;;;;;;5006459;28;129255;-75
2023/12/09 00:33:18;;;;;;;;;;;;;;;;;;5009351;28;122888;-74
2023/12/09 00:35:45;;;;;;;;;;;;;;;;;;4999682;28;129115;-75
2023/12/09 00:38:11;;;;;;;;;;;;;;;;;;5003682;28;130772;-76
2023/12/09 00:40:37;;;;;;;;;;;;;;;;;;4998876;28;128969;-73
2023/12/09 00:43:04;;;;;;;;;;;;;;;;;;5000406;28;129438;-75
2023/12/09 00:45:30;;;;;;;;;;;;;;;;;;4995706;28;123657;-74
2023/12/09 00:47:57;;;;;;;;;;;;;;;;;;4998659;28;128882;-74
2023/12/09 00:50:23;;;;;;;;;;;;;;;;;;4994813;28;129931;-73
2023/12/09 00:52:49;;;;;;;;;;;;;;;;;;4993950;28;122899;-75
2023/12/09 00:55:16;;;;;;;;;;;;;;;;;;4998234;28;128949;-75
2023/12/09 00:57:42;;;;;;;;;;;;;;;;;;5001756;28;130225;-74
2023/12/09 01:00:08;;;;;;;;;;;;;;;;;;5008805;28;122263;-74
2023/12/09 01:02:35;;;;;;;;;;;;;;;;;;5003520;28;129168;-74
2023/12/09 01:05:01;;;;;;;;;;;;;;;;;;4996144;28;125711;-74
2023/12/09 01:07:28;;;;;;;;;;;;;;;;;;4994432;28;125991;-75
2023/12/09 01:09:54;;;;;;;;;;;;;;;;;;4997047;28;129400;-75
2023/12/09 01:12:21;;;;;;;;;;;;;;;;;;4996233;28;123324;-75
2023/12/09 01:14:47;;;;;;;;;;;;;;;;;;4996994;28;128824;-75
2023/12/09 01:17:14;;;;;;;;;;;;;;;;;;5001202;28;117824;-75
2023/12/09 01:19:40;;;;;;;;;;;;;;;;;;5003729;28;123922;-75
2023/12/09 01:22:06;;;;;;;;;;;;;;;;;;5002057;28;129467;-75
2023/12/09 01:24:33;;;;;;;;;;;;;;;;;;5006404;28;120805;-75
2023/12/09 01:26:59;;;;;;;;;;;;;;;;;;5005788;28;127394;-75
2023/12/09 01:29:25;;;;;;;;;;;;;;;;;;4997855;28;128165;-75
2023/12/09 01:31:52;;;;;;;;;;;;;;;;;;5002059;28;125397;-75
2023/12/09 01:34:18;;;;;;;;;;;;;;;;;;4997329;28;119302;-75
2023/12/09 01:36:44;;;;;;;;;;;;;;;;;;5000362;28;123306;-75
2023/12/09 01:39:11;;;;;;;;;;;;;;;;;;5001094;28;121493;-74
2023/12/09 01:41:38;;;;;;;;;;;;;;;;;;5001833;28;127862;-75
2023/12/09 01:44:04;;;;;;;;;;;;;;;;;;5001588;28;123918;-74
2023/12/09 01:46:31;;;;;;;;;;;;;;;;;;4999829;28;128311;-75
2023/12/09 01:48:57;;;;;;;;;;;;;;;;;;4998706;28;129420;-75
2023/12/09 01:51:24;;;;;;;;;;;;;;;;;;5003995;28;123863;-74
2023/12/09 01:53:50;;;;;;;;;;;;;;;;;;5003180;28;129031;-75
2023/12/09 01:56:16;;;;;;;;;;;;;;;;;;4999914;28;129483;-75
2023/12/09 01:58:43;;;;;;;;;;;;;;;;;;5002122;28;123022;-75
2023/12/09 02:01:09;;;;;;;;;;;;;;;;;;5000697;28;128857;-74
2023/12/09 02:03:36;;;;;;;;;;;;;;;;;;5004343;28;129254;-75
2023/12/09 02:06:02;;;;;;;;;;;;;;;;;;4999678;28;129980;-76
2023/12/09 02:08:28;;;;;;;;;;;;;;;;;;4996533;28;131136;-75
2023/12/09 02:10:55;;;;;;;;;;;;;;;;;;4995975;28;121435;-74
2023/12/09 02:13:23;;;;;;;;;;;;;;;;;;4998981;28;129244;-74
2023/12/09 02:15:49;;;;;;;;;;;;;;;;;;5002809;28;130324;-74
2023/12/09 02:18:15;;;;;;;;;;;;;;;;;;5000538;28;123209;-75
2023/12/09 02:20:42;;;;;;;;;;;;;;;;;;5001269;28;129260;-74
2023/12/09 02:23:08;;;;;;;;;;;;;;;;;;5002391;28;127423;-75
2023/12/09 02:25:34;;;;;;;;;;;;;;;;;;5002628;28;123083;-74
2023/12/09 02:28:01;;;;;;;;;;;;;;;;;;4998431;28;129353;-75
2023/12/09 02:30:27;;;;;;;;;;;;;;;;;;4997457;28;123014;-75
2023/12/09 02:32:53;;;;;;;;;;;;;;;;;;5004548;28;129947;-74
2023/12/09 02:35:20;;;;;;;;;;;;;;;;;;5008860;28;128091;-75
2023/12/09 02:37:46;;;;;;;;;;;;;;;;;;5008193;28;123430;-74
2023/12/09 02:40:13;;;;;;;;;;;;;;;;;;4999573;28;131868;-74
2023/12/09 02:42:39;;;;;;;;;;;;;;;;;;4997518;28;130275;-75
2023/12/09 02:45:06;;;;;;;;;;;;;;;;;;4998102;28;125534;-74
2023/12/09 02:47:32;;;;;;;;;;;;;;;;;;5001363;28;129673;-74
2023/12/09 02:49:59;;;;;;;;;;;;;;;;;;5001770;28;124023;-75
2023/12/09 02:52:25;;;;;;;;;;;;;;;;;;4996189;28;128990;-75
2023/12/09 02:54:52;;;;;;;;;;;;;;;;;;4997245;28;130633;-73
2023/12/09 02:57:18;;;;;;;;;;;;;;;;;;4999927;28;122884;-74
2023/12/09 02:59:44;;;;;;;;;;;;;;;;;;5000766;28;130016;-74
2023/12/09 03:02:11;;;;;;;;;;;;;;;;;;4999408;28;129276;-75
2023/12/09 03:04:37;;;;;;;;;;;;;;;;;;4997156;28;122672;-75
2023/12/09 03:07:03;;;;;;;;;;;;;;;;;;4999292;28;129768;-74
2023/12/09 03:09:30;;;;;;;;;;;;;;;;;;5001358;28;98915;-75
2023/12/09 03:11:56;;;;;;;;;;;;;;;;;;4999348;28;128818;-74
2023/12/09 03:14:23;;;;;;;;;;;;;;;;;;4998335;28;131470;-73
2023/12/09 03:16:49;;;;;;;;;;;;;;;;;;5008114;28;123001;-74
2023/12/09 03:19:15;;;;;;;;;;;;;;;;;;5008048;28;129067;-75
2023/12/09 03:21:42;;;;;;;;;;;;;;;;;;5005214;28;129300;-75
2023/12/09 03:24:08;;;;;;;;;;;;;;;;;;5008101;28;123315;-74
2023/12/09 03:26:35;;;;;;;;;;;;;;;;;;5007564;28;129448;-74
2023/12/09 03:29:01;;;;;;;;;;;;;;;;;;5011109;28;129467;-74
2023/12/09 03:31:27;;;;;;;;;;;;;;;;;;5007114;28;125294;-75
2023/12/09 03:33:54;;;;;;;;;;;;;;;;;;5007184;28;129421;-74
2023/12/09 03:36:20;;;;;;;;;;;;;;;;;;5007936;28;121852;-74
2023/12/09 03:38:46;;;;;;;;;;;;;;;;;;5009417;28;104018;-75
2023/12/09 03:41:13;;;;;;;;;;;;;;;;;;5006885;28;129859;-75
2023/12/09 03:43:39;;;;;;;;;;;;;;;;;;5007976;28;123047;-75
2023/12/09 03:46:05;;;;;;;;;;;;;;;;;;5007658;28;129000;-74
2023/12/09 03:48:32;;;;;;;;;;;;;;;;;;5007328;28;129245;-75
2023/12/09 03:50:59;;;;;;;;;;;;;;;;;;5009962;28;122483;-75
2023/12/09 03:53:26;;;;;;;;;;;;;;;;;;4998846;28;130225;-75
2023/12/09 03:55:52;;;;;;;;;;;;;;;;;;4999818;28;121440;-75
2023/12/09 03:58:22;;;;;;;;;;;;;;;;;;5000071;28;129271;-75
2023/12/09 04:00:48;;;;;;;;;;;;;;;;;;4998046;28;130715;-76
2023/12/09 04:03:15;;;;;;;;;;;;;;;;;;4997725;28;123898;-75
2023/12/09 04:05:41;;;;;;;;;;;;;;;;;;4998200;28;126841;-75
2023/12/09 04:08:08;;;;;;;;;;;;;;;;;;4998675;28;129492;-75
2023/12/09 04:10:34;;;;;;;;;;;;;;;;;;5002484;28;123761;-75
2023/12/09 04:13:00;;;;;;;;;;;;;;;;;;5004660;28;127551;-74
2023/12/09 04:15:27;;;;;;;;;;;;;;;;;;5005045;28;119290;-75
2023/12/09 04:17:53;;;;;;;;;;;;;;;;;;5006500;28;129819;-74
2023/12/09 04:20:20;;;;;;;;;;;;;;;;;;5003881;28;129301;-74
2023/12/09 04:22:47;;;;;;;;;;;;;;;;;;5000828;28;109031;-74
2023/12/09 04:25:13;;;;;;;;;;;;;;;;;;4997765;28;126596;-75
2023/12/09 04:27:40;;;;;;;;;;;;;;;;;;4997909;28;129378;-75
2023/12/09 04:30:06;;;;;;;;;;;;;;;;;;4997202;28;122871;-75
2023/12/09 04:32:32;;;;;;;;;;;;;;;;;;5000756;28;128949;-73
2023/12/09 04:34:59;;;;;;;;;;;;;;;;;;5004887;28;129558;-75
2023/12/09 04:37:25;;;;;;;;;;;;;;;;;;4998420;28;129018;-75
2023/12/09 04:39:51;;;;;;;;;;;;;;;;;;5000670;28;110665;-75
2023/12/09 04:42:18;;;;;;;;;;;;;;;;;;5000936;28;122772;-75
2023/12/09 04:44:44;;;;;;;;;;;;;;;;;;4994405;28;129331;-76
2023/12/09 04:47:10;;;;;;;;;;;;;;;;;;5002077;28;130056;-75
2023/12/09 04:49:37;;;;;;;;;;;;;;;;;;5006760;28;122724;-74
2023/12/09 04:52:04;;;;;;;;;;;;;;;;;;5000402;28;129446;-74
2023/12/09 04:54:30;;;;;;;;;;;;;;;;;;4999694;28;129474;-75
2023/12/09 04:56:57;;;;;;;;;;;;;;;;;;4998049;28;122349;-74
2023/12/09 04:59:24;;;;;;;;;;;;;;;;;;4995149;28;129495;-74
2023/12/09 05:01:50;;;;;;;;;;;;;;;;;;4995860;28;123978;-74
2023/12/09 05:04:17;;;;;;;;;;;;;;;;;;4998297;28;129009;-75
2023/12/09 05:06:43;;;;;;;;;;;;;;;;;;4999108;28;127952;-75
2023/12/09 05:09:10;;;;;;;;;;;;;;;;;;4998441;28;123099;-75
2023/12/09 05:11:36;;;;;;;;;;;;;;;;;;5000364;28;128980;-75
2023/12/09 05:14:02;;;;;;;;;;;;;;;;;;5000416;28;129423;-74
2023/12/09 05:16:29;;;;;;;;;;;;;;;;;;5011772;28;98785;-74
2023/12/09 05:18:55;;;;;;;;;;;;;;;;;;5009836;28;129596;-74
2023/12/09 05:21:22;;;;;;;;;;;;;;;;;;5021957;28;121695;-74
2023/12/09 05:23:48;;;;;;;;;;;;;;;;;;5011972;28;130067;-75
2023/12/09 05:26:14;;;;;;;;;;;;;;;;;;5009370;28;129264;-74
2023/12/09 05:28:41;;;;;;;;;;;;;;;;;;5010213;28;122221;-74
2023/12/09 05:31:07;;;;;;;;;;;;;;;;;;5009689;28;127698;-73
2023/12/09 05:33:34;;;;;;;;;;;;;;;;;;5008406;28;129620;-74
2023/12/09 05:36:00;;;;;;;;;;;;;;;;;;5010008;28;125338;-74
2023/12/09 05:38:27;;;;;;;;;;;;;;;;;;5026279;28;129047;-74
2023/12/09 05:40:53;;;;;;;;;;;;;;;;;;5029340;28;123256;-75
2023/12/09 05:43:19;;;;;;;;;;;;;;;;;;5030026;28;127415;-74
2023/12/09 05:45:46;;;;;;;;;;;;;;;;;;5029564;27;129462;-76
2023/12/09 05:48:12;;;;;;;;;;;;;;;;;;5029027;28;121593;-74
2023/12/09 05:50:39;;;;;;;;;;;;;;;;;;5030212;28;128963;-74
2023/12/09 05:53:05;;;;;;;;;;;;;;;;;;5013062;28;129157;-74
2023/12/09 05:55:31;;;;;;;;;;;;;;;;;;5000420;28;123416;-74
2023/12/09 05:57:58;;;;;;;;;;;;;;;;;;4997477;28;129030;-74
2023/12/09 06:00:24;;;;;;;;;;;;;;;;;;5005397;28;129113;-74
2023/12/09 06:02:50;;;;;;;;;;;;;;;;;;5003755;28;129355;-74
2023/12/09 06:05:17;;;;;;;;;;;;;;;;;;5007914;28;129461;-74
2023/12/09 06:07:43;;;;;;;;;;;;;;;;;;5008628;28;122429;-75
2023/12/09 06:10:09;;;;;;;;;;;;;;;;;;5008384;28;129762;-74
2023/12/09 06:12:36;;;;;;;;;;;;;;;;;;5009101;28;129393;-74
2023/12/09 06:15:02;;;;;;;;;;;;;;;;;;5009445;28;123284;-74
2023/12/09 06:17:29;;;;;;;;;;;;;;;;;;5004778;28;130853;-74
2023/12/09 06:19:55;;;;;;;;;;;;;;;;;;5007803;28;129475;-74
2023/12/09 06:22:21;;;;;;;;;;;;;;;;;;5010675;28;123365;-74
2023/12/09 06:24:48;;;;;;;;;;;;;;;;;;5009096;28;127678;-74
2023/12/09 06:27:14;;;;;;;;;;;;;;;;;;5007680;28;123018;-74
2023/12/09 06:29:41;;;;;;;;;;;;;;;;;;5007456;28;129100;-74
2023/12/09 06:32:07;;;;;;;;;;;;;;;;;;5008714;28;129848;-74
2023/12/09 06:34:33;;;;;;;;;;;;;;;;;;5009281;28;123524;-74
2023/12/09 06:37:00;;;;;;;;;;;;;;;;;;5008437;28;128942;-74
2023/12/09 06:39:26;;;;;;;;;;;;;;;;;;5008630;28;129478;-73
2023/12/09 06:41:53;;;;;;;;;;;;;;;;;;5008868;28;122147;-74
2023/12/09 06:44:19;;;;;;;;;;;;;;;;;;5010907;28;129638;-75
2023/12/09 06:46:45;;;;;;;;;;;;;;;;;;5008112;28;122960;-74
2023/12/09 06:49:12;;;;;;;;;;;;;;;;;;5009674;28;106191;-75
2023/12/09 06:51:40;;;;;;;;;;;;;;;;;;5007857;28;129445;-75
2023/12/09 06:54:07;;;;;;;;;;;;;;;;;;5008409;28;123103;-75
2023/12/09 06:56:34;;;;;;;;;;;;;;;;;;5008727;28;129736;-75
2023/12/09 06:59:00;;;;;;;;;;;;;;;;;;5007828;28;130063;-75
2023/12/09 07:01:29;;;;;;;;;;;;;;;;;;5008525;28;123007;-74
2023/12/09 07:03:56;;;;;;;;;;;;;;;;;;5009200;28;128511;-75
2023/12/09 07:06:22;;;;;;;;;;;;;;;;;;5010928;28;128968;-75
2023/12/09 07:08:48;;;;;;;;;;;;;;;;;;5008654;28;127496;-77
2023/12/09 07:11:15;;;;;;;;;;;;;;;;;;5007206;28;130324;-75
2023/12/09 07:13:41;;;;;;;;;;;;;;;;;;5007867;28;123159;-74
2023/12/09 07:16:09;;;;;;;;;;;;;;;;;;5008188;28;127579;-76
2023/12/09 07:18:37;;;;;;;;;;;;;;;;;;5007919;28;129434;-75
2023/12/09 07:21:03;;;;;;;;;;;;;;;;;;5008493;28;124117;-76
2023/12/09 07:23:30;;;;;;;;;;;;;;;;;;5008045;28;127698;-74
2023/12/09 07:25:56;;;;;;;;;;;;;;;;;;5010542;28;127646;-75
2023/12/09 07:28:23;;;;;;;;;;;;;;;;;;5008208;28;129148;-74
2023/12/09 07:30:49;;;;;;;;;;;;;;;;;;5007988;28;129819;-74
2023/12/09 07:33:17;;;;;;;;;;;;;;;;;;5006818;28;123327;-75
2023/12/09 07:35:43;;;;;;;;;;;;;;;;;;5006752;28;128711;-74
2023/12/09 07:38:09;;;;;;;;;;;;;;;;;;5007370;28;129106;-75
2023/12/09 07:40:36;;;;;;;;;;;;;;;;;;5007154;28;122959;-75
2023/12/09 07:43:02;;;;;;;;;;;;;;;;;;5007948;28;129014;-75
2023/12/09 07:45:28;;;;;;;;;;;;;;;;;;5007560;28;130314;-75
2023/12/09 07:47:55;;;;;;;;;;;;;;;;;;5010679;28;122860;-75
2023/12/09 07:50:22;;;;;;;;;;;;;;;;;;5007224;28;129492;-75
2023/12/09 07:52:49;;;;;;;;;;;;;;;;;;5007966;28;123107;-73
2023/12/09 07:55:16;;;;;;;;;;;;;;;;;;5006734;28;128931;-73
2023/12/09 07:57:42;;;;;;;;;;;;;;;;;;5007192;28;130536;-74
2023/12/09 08:00:09;;;;;;;;;;;;;;;;;;5006735;28;123653;-74
2023/12/09 08:02:35;;;;;;;;;;;;;;;;;;4995253;28;121802;-74
2023/12/09 08:05:01;;;;;;;;;;;;;;;;;;4987343;28;129495;-74
2023/12/09 08:07:28;;;;;;;;;;;;;;;;;;4987071;28;124016;-74
2023/12/09 08:09:54;;;;;;;;;;;;;;;;;;4989751;28;128903;-74
2023/12/09 08:12:21;;;;;;;;;;;;;;;;;;4987329;28;123149;-75
2023/12/09 08:14:47;;;;;;;;;;;;;;;;;;4987321;28;129299;-74
2023/12/09 08:17:13;;;;;;;;;;;;;;;;;;4986619;28;130179;-75
2023/12/09 08:19:40;;;;;;;;;;;;;;;;;;4987512;28;121765;-75
2023/12/09 08:22:06;;;;;;;;;;;;;;;;;;4985778;28;128462;-75
2023/12/09 08:24:33;;;;;;;;;;;;;;;;;;4986206;28;130182;-76
2023/12/09 08:26:59;;;;;;;;;;;;;;;;;;4987195;28;125626;-75
2023/12/09 08:29:25;;;;;;;;;;;;;;;;;;4986196;28;128906;-73
2023/12/09 08:31:56;;;;;;;;;;;;;;;;;;4990134;28;128292;-74
2023/12/09 08:34:23;;;;;;;;;;;;;;;;;;4986761;28;128929;-74
2023/12/09 08:36:50;;;;;;;;;;;;;;;;;;4987016;28;107899;-74
2023/12/09 08:39:17;;;;;;;;;;;;;;;;;;4986735;28;123786;-74
2023/12/09 08:41:44;;;;;;;;;;;;;;;;;;4987533;28;129766;-74
2023/12/09 08:44:10;;;;;;;;;;;;;;;;;;4985937;28;129423;-76
2023/12/09 08:46:37;;;;;;;;;;;;;;;;;;4986991;28;123057;-78
2023/12/09 08:49:03;;;;;;;;;;;;;;;;;;4987407;28;129676;-76
2023/12/09 08:51:30;;;;;;;;;;;;;;;;;;5005939;28;129342;-74
2023/12/09 08:53:56;;;;;;;;;;;;;;;;;;5010203;28;121110;-74
2023/12/09 08:56:22;;;;;;;;;;;;;;;;;;5006282;28;129503;-74
2023/12/09 08:58:49;;;;;;;;;;;;;;;;;;5006124;28;123289;-74
2023/12/09 09:01:15;;;;;;;;;;;;;;;;;;5006461;28;129100;-73
2023/12/09 09:03:43;;;;;;;;;;;;;;;;;;5006070;28;129488;-74
2023/12/09 09:06:09;;;;;;;;;;;;;;;;;;5005773;28;123746;-74
2023/12/09 09:08:35;;;;;;;;;;;;;;;;;;5006725;28;129461;-74
2023/12/09 09:11:03;;;;;;;;;;;;;;;;;;5006409;28;129617;-74
2023/12/09 09:13:30;;;;;;;;;;;;;;;;;;5005146;28;121487;-75
2023/12/09 09:15:56;;;;;;;;;;;;;;;;;;5009534;28;129821;-74
2023/12/09 09:18:22;;;;;;;;;;;;;;;;;;5005447;28;123125;-74
2023/12/09 09:20:49;;;;;;;;;;;;;;;;;;5006432;28;129178;-76
2023/12/09 09:23:16;;;;;;;;;;;;;;;;;;5005679;28;129482;-75
2023/12/09 09:25:42;;;;;;;;;;;;;;;;;;5005646;28;123316;-75
2023/12/09 09:28:08;;;;;;;;;;;;;;;;;;5006138;28;128934;-75
2023/12/09 09:30:35;;;;;;;;;;;;;;;;;;5006264;28;130325;-75
2023/12/09 09:33:01;;;;;;;;;;;;;;;;;;5005670;28;122315;-75
2023/12/09 09:35:27;;;;;;;;;;;;;;;;;;5008908;28;129769;-75
2023/12/09 09:37:54;;;;;;;;;;;;;;;;;;5002592;28;122023;-75
2023/12/09 09:40:20;;;;;;;;;;;;;;;;;;5004933;28;129180;-75
2023/12/09 09:42:47;;;;;;;;;;;;;;;;;;4993900;28;129050;-75
2023/12/09 09:45:13;;;;;;;;;;;;;;;;;;4994741;28;121622;-74
2023/12/09 09:47:40;;;;;;;;;;;;;;;;;;4990776;28;129011;-75
2023/12/09 09:50:06;;;;;;;;;;;;;;;;;;4994071;28;129398;-75
2023/12/09 09:52:32;;;;;;;;;;;;;;;;;;4993286;28;123743;-75
2023/12/09 09:54:59;;;;;;;;;;;;;;;;;;4999696;28;129090;-75
2023/12/09 09:57:25;;;;;;;;;;;;;;;;;;5009671;28;130121;-76
2023/12/09 09:59:55;;;;;;;;;;;;;;;;;;5005656;28;129937;-75
2023/12/09 10:02:22;;;;;;;;;;;;;;;;;;5007417;28;130120;-76
2023/12/09 10:04:48;;;;;;;;;;;;;;;;;;5006936;28;126326;-75
2023/12/09 10:07:14;;;;;;;;;;;;;;;;;;5004562;28;128948;-76
2023/12/09 10:09:41;;;;;;;;;;;;;;;;;;5007408;28;129473;-75
2023/12/09 10:12:07;;;;;;;;;;;;;;;;;;5006710;28;123288;-75
2023/12/09 10:14:34;;;;;;;;;;;;;;;;;;5008483;28;128845;-76
2023/12/09 10:17:00;;;;;;;;;;;;;;;;;;5009068;28;129057;-75
2023/12/09 10:19:26;;;;;;;;;;;;;;;;;;5004289;28;123258;-76
2023/12/09 10:21:53;;;;;;;;;;;;;;;;;;4998358;28;130136;-76
2023/12/09 10:24:19;;;;;;;;;;;;;;;;;;4988902;28;123040;-76
2023/12/09 10:26:45;;;;;;;;;;;;;;;;;;4999973;28;129327;-76
2023/12/09 10:29:12;;;;;;;;;;;;;;;;;;4995046;28;130541;-76
2023/12/09 10:31:38;;;;;;;;;;;;;;;;;;5002520;28;123073;-75
2023/12/09 10:34:05;;;;;;;;;;;;;;;;;;4995188;28;129017;-75
2023/12/09 10:36:31;;;;;;;;;;;;;;;;;;4997889;28;129098;-74
2023/12/09 10:38:57;;;;;;;;;;;;;;;;;;5005584;28;122165;-74
2023/12/09 10:41:25;;;;;;;;;;;;;;;;;;5006806;28;128893;-74
2023/12/09 10:43:51;;;;;;;;;;;;;;;;;;4995043;28;123184;-75
2023/12/09 10:46:17;;;;;;;;;;;;;;;;;;4988194;28;128922;-75
2023/12/09 10:48:44;;;;;;;;;;;;;;;;;;5003378;28;129490;-74
2023/12/09 10:51:10;;;;;;;;;;;;;;;;;;4996001;28;120053;-73
2023/12/09 10:53:37;;;;;;;;;;;;;;;;;;5007221;28;129363;-74
2023/12/09 10:56:03;;;;;;;;;;;;;;;;;;5006091;28;130239;-75
2023/12/09 10:58:30;;;;;;;;;;;;;;;;;;5006478;28;123198;-74
2023/12/09 11:00:56;;;;;;;;;;;;;;;;;;5007447;28;130742;-73
2023/12/09 11:03:22;;;;;;;;;;;;;;;;;;5005388;28;128225;-74
2023/12/09 11:05:51;;;;;;;;;;;;;;;;;;5008068;28;129760;-74
2023/12/09 11:08:17;;;;;;;;;;;;;;;;;;5004785;28;129448;-74
2023/12/09 11:10:44;;;;;;;;;;;;;;;;;;5006082;28;121952;-75
2023/12/09 11:13:10;;;;;;;;;;;;;;;;;;5007745;28;127606;-73
2023/12/09 11:15:36;;;;;;;;;;;;;;;;;;5007384;28;129489;-74
2023/12/09 11:18:03;;;;;;;;;;;;;;;;;;5006833;28;125455;-74
2023/12/09 11:20:29;;;;;;;;;;;;;;;;;;5003534;28;129082;-75
2023/12/09 11:22:56;;;;;;;;;;;;;;;;;;5004175;28;129837;-74
2023/12/09 11:25:22;;;;;;;;;;;;;;;;;;5006368;28;123472;-73
2023/12/09 11:27:50;;;;;;;;;;;;;;;;;;5006824;28;100013;-74
2023/12/09 11:30:17;;;;;;;;;;;;;;;;;;5006968;28;123440;-73
2023/12/09 11:32:45;;;;;;;;;;;;;;;;;;4988365;28;113407;-74
2023/12/09 11:35:11;;;;;;;;;;;;;;;;;;5003510;28;129446;-73
2023/12/09 11:37:38;;;;;;;;;;;;;;;;;;5007521;28;123382;-73
2023/12/09 11:40:04;;;;;;;;;;;;;;;;;;5000423;28;129026;-74
2023/12/09 11:42:31;;;;;;;;;;;;;;;;;;5004928;28;129904;-74
2023/12/09 11:44:57;;;;;;;;;;;;;;;;;;5001486;28;98250;-74
2023/12/09 11:47:23;;;;;;;;;;;;;;;;;;4986768;28;129581;-74
2023/12/09 11:49:50;;;;;;;;;;;;;;;;;;5005310;28;122642;-75
2023/12/09 11:52:16;;;;;;;;;;;;;;;;;;5019315;28;128858;-75
2023/12/09 11:54:43;;;;;;;;;;;;;;;;;;5024212;28;129178;-74
2023/12/09 11:57:09;;;;;;;;;;;;;;;;;;5005755;28;123220;-74
2023/12/09 11:59:36;;;;;;;;;;;;;;;;;;4995388;28;128885;-74
2023/12/09 12:02:02;;;;;;;;;;;;;;;;;;4993588;28;129300;-73
2023/12/09 12:04:33;;;;;;;;;;;;;;;;;;5006742;28;123054;-74
2023/12/09 12:07:02;;;;;;;;;;;;;;;;;;5009718;28;129228;-75
2023/12/09 12:09:28;;;;;;;;;;;;;;;;;;5005979;28;123740;-74
2023/12/09 12:11:55;;;;;;;;;;;;;;;;;;5004741;28;128566;-73
2023/12/09 12:14:21;;;;;;;;;;;;;;;;;;5005355;28;114976;-74
2023/12/09 12:16:48;;;;;;;;;;;;;;;;;;4998606;28;109478;-75
2023/12/09 12:19:14;;;;;;;;;;;;;;;;;;4987231;28;111167;-75
2023/12/09 12:21:41;;;;;;;;;;;;;;;;;;4985975;28;118763;-74
2023/12/09 12:24:08;;;;;;;;;;;;;;;;;;5004773;28;111203;-75
2023/12/09 12:26:35;;;;;;;;;;;;;;;;;;4995794;28;99491;-74
2023/12/09 12:29:01;;;;;;;;;;;;;;;;;;5003888;28;124402;-75
2023/12/09 12:31:27;;;;;;;;;;;;;;;;;;4994841;28;107925;-75
2023/12/09 12:33:54;;;;;;;;;;;;;;;;;;5006599;28;105611;-75
2023/12/09 12:36:20;;;;;;;;;;;;;;;;;;5003862;28;109047;-75
2023/12/09 12:38:49;;;;;;;;;;;;;;;;;;5007879;28;106024;-75
2023/12/09 12:41:16;;;;;;;;;;;;;;;;;;5004711;28;117362;-75
2023/12/09 12:43:42;;;;;;;;;;;;;;;;;;5007694;28;109009;-74
2023/12/09 12:46:08;;;;;;;;;;;;;;;;;;5002770;28;115457;-75
2023/12/09 12:48:35;;;;;;;;;;;;;;;;;;5006860;28;116162;-74
2023/12/09 12:51:02;;;;;;;;;;;;;;;;;;5009063;28;108303;-75
2023/12/09 12:53:28;;;;;;;;;;;;;;;;;;5001802;28;117891;-74
2023/12/09 12:55:55;;;;;;;;;;;;;;;;;;5005340;28;99024;-75
2023/12/09 12:58:21;;;;;;;;;;;;;;;;;;5006263;28;110605;-75
2023/12/09 13:00:49;;;;;;;;;;;;;;;;;;5003986;28;118571;-75
2023/12/09 13:03:16;;;;;;;;;;;;;;;;;;5002293;28;110953;-75
2023/12/09 13:05:43;;;;;;;;;;;;;;;;;;5003287;28;107854;-75
2023/12/09 13:08:09;;;;;;;;;;;;;;;;;;5007099;28;100380;-75
2023/12/09 13:10:36;;;;;;;;;;;;;;;;;;5005801;28;101275;-75
2023/12/09 13:13:02;;;;;;;;;;;;;;;;;;4999239;28;108744;-75
2023/12/09 13:15:29;;;;;;;;;;;;;;;;;;5004180;28;98284;-74
2023/12/09 13:17:56;;;;;;;;;;;;;;;;;;5004549;28;118267;-75
2023/12/09 13:20:22;;;;;;;;;;;;;;;;;;5000594;28;117950;-75
2023/12/09 13:22:48;;;;;;;;;;;;;;;;;;5005013;28;110427;-76
2023/12/09 13:25:17;;;;;;;;;;;;;;;;;;5005082;28;100195;-74
2023/12/09 13:27:44;;;;;;;;;;;;;;;;;;5000869;28;117124;-77
2023/12/09 13:30:10;;;;;;;;;;;;;;;;;;5004904;28;105370;-76
2023/12/09 13:32:37;;;;;;;;;;;;;;;;;;5006399;28;113534;-75
2023/12/09 13:35:04;;;;;;;;;;;;;;;;;;5014028;28;98423;-75
2023/12/09 13:37:30;;;;;;;;;;;;;;;;;;5004636;28;108993;-75
2023/12/09 13:39:57;;;;;;;;;;;;;;;;;;5016128;27;101383;-75
2023/12/09 13:42:23;;;;;;;;;;;;;;;;;;5006300;28;103377;-75
2023/12/09 13:44:51;;;;;;;;;;;;;;;;;;5003585;28;116797;-75
2023/12/09 13:47:18;;;;;;;;;;;;;;;;;;5008055;28;115615;-76
2023/12/09 13:49:45;;;;;;;;;;;;;;;;;;5008612;28;98200;-75
2023/12/09 13:52:14;;;;;;;;;;;;;;;;;;5017096;28;120419;-75
2023/12/09 13:54:40;;;;;;;;;;;;;;;;;;5011846;28;99792;-75
2023/12/09 13:57:08;;;;;;;;;;;;;;;;;;5009520;28;122581;-76
2023/12/09 13:59:35;;;;;;;;;;;;;;;;;;5008274;28;112902;-76
2023/12/09 14:02:01;;;;;;;;;;;;;;;;;;5008612;28;109461;-76
2023/12/09 14:04:27;;;;;;;;;;;;;;;;;;5009839;28;108657;-76
2023/12/09 14:06:54;;;;;;;;;;;;;;;;;;5005740;28;111252;-76
2023/12/09 14:09:20;;;;;;;;;;;;;;;;;;5006536;28;108209;-75
2023/12/09 14:11:47;;;;;;;;;;;;;;;;;;5007349;28;117759;-77
2023/12/09 14:14:14;;;;;;;;;;;;;;;;;;5004592;28;116710;-77
2023/12/09 14:16:42;;;;;;;;;;;;;;;;;;5012249;28;98207;-76
2023/12/09 14:19:10;;;;;;;;;;;;;;;;;;4998084;28;111667;-75
2023/12/09 14:21:38;;;;;;;;;;;;;;;;;;5009643;28;107293;-77
2023/12/09 14:24:04;;;;;;;;;;;;;;;;;;5006406;28;116362;-76
2023/12/09 14:26:30;;;;;;;;;;;;;;;;;;5009244;28;115383;-76
2023/12/09 14:28:59;;;;;;;;;;;;;;;;;;5006733;28;98755;-75
2023/12/09 14:31:25;;;;;;;;;;;;;;;;;;5007325;28;118153;-75
2023/12/09 14:33:52;;;;;;;;;;;;;;;;;;5006234;28;108865;-74
2023/12/09 14:36:19;;;;;;;;;;;;;;;;;;5001026;28;106565;-76
2023/12/09 14:38:45;;;;;;;;;;;;;;;;;;5011251;28;114991;-75
2023/12/09 14:41:11;;;;;;;;;;;;;;;;;;5010730;28;110566;-75
2023/12/09 14:43:39;;;;;;;;;;;;;;;;;;5003751;27;118117;-76
2023/12/09 14:46:05;;;;;;;;;;;;;;;;;;5005602;28;120269;-76
2023/12/09 14:48:32;;;;;;;;;;;;;;;;;;5008287;28;110025;-75
2023/12/09 14:50:58;;;;;;;;;;;;;;;;;;5002737;28;111616;-75
2023/12/09 14:53:25;;;;;;;;;;;;;;;;;;5006243;28;117086;-74
2023/12/09 14:55:53;;;;;;;;;;;;;;;;;;5005201;28;110445;-76
2023/12/09 14:58:20;;;;;;;;;;;;;;;;;;5012541;28;113026;-76
2023/12/09 15:00:47;;;;;;;;;;;;;;;;;;5011520;27;117763;-76
2023/12/09 15:03:16;;;;;;;;;;;;;;;;;;5006332;28;113509;-75
2023/12/09 15:05:43;;;;;;;;;;;;;;;;;;5002530;28;114320;-76
2023/12/09 15:08:09;;;;;;;;;;;;;;;;;;5004964;28;111791;-75
2023/12/09 15:10:35;;;;;;;;;;;;;;;;;;5004737;28;113627;-74
2023/12/09 15:13:02;;;;;;;;;;;;;;;;;;5008785;28;115646;-75
2023/12/09 15:15:28;;;;;;;;;;;;;;;;;;5008118;28;106556;-75
2023/12/09 15:17:55;;;;;;;;;;;;;;;;;;5006691;28;117048;-75
2023/12/09 15:20:21;;;;;;;;;;;;;;;;;;5004190;28;117874;-75
2023/12/09 15:22:48;;;;;;;;;;;;;;;;;;5008948;28;107584;-75
2023/12/09 15:25:18;;;;;;;;;;;;;;;;;;5006597;28;113970;-76
2023/12/09 15:27:45;;;;;;;;;;;;;;;;;;5001929;28;110635;-76
2023/12/09 15:30:11;;;;;;;;;;;;;;;;;;5007630;28;113619;-76
2023/12/09 15:32:42;;;;;;;;;;;;;;;;;;5001776;28;117998;-75
2023/12/09 15:35:09;;;;;;;;;;;;;;;;;;4993538;28;98092;-74
2023/12/09 15:37:35;;;;;;;;;;;;;;;;;;4995455;28;114366;-75
2023/12/09 15:40:01;;;;;;;;;;;;;;;;;;4998372;28;114420;-75
2023/12/09 15:42:28;;;;;;;;;;;;;;;;;;4998815;28;98351;-75
2023/12/09 15:44:54;;;;;;;;;;;;;;;;;;5002621;28;121407;-76
2023/12/09 15:47:21;;;;;;;;;;;;;;;;;;4988195;28;112039;-75
2023/12/09 15:49:47;;;;;;;;;;;;;;;;;;5008260;28;107003;-75
2023/12/09 15:52:15;;;;;;;;;;;;;;;;;;5003886;28;112770;-75
2023/12/09 15:54:41;;;;;;;;;;;;;;;;;;5006527;28;109871;-74
2023/12/09 15:57:08;;;;;;;;;;;;;;;;;;5005546;28;117197;-75
2023/12/09 15:59:35;;;;;;;;;;;;;;;;;;5006780;28;113090;-75
2023/12/09 16:02:01;;;;;;;;;;;;;;;;;;5005548;28;108070;-74
2023/12/09 16:04:28;;;;;;;;;;;;;;;;;;5008813;28;113678;-73
2023/12/09 16:06:55;;;;;;;;;;;;;;;;;;5005430;28;105230;-74
2023/12/09 16:09:22;;;;;;;;;;;;;;;;;;5007103;28;111369;-75
2023/12/09 16:11:48;;;;;;;;;;;;;;;;;;5006869;28;107726;-75
2023/12/09 16:14:15;;;;;;;;;;;;;;;;;;5005418;28;111760;-75
2023/12/09 16:16:43;;;;;;;;;;;;;;;;;;5005323;28;117580;-74
2023/12/09 16:19:10;;;;;;;;;;;;;;;;;;5004821;28;113907;-74
2023/12/09 16:21:36;;;;;;;;;;;;;;;;;;5004398;28;106465;-74
2023/12/09 16:24:03;;;;;;;;;;;;;;;;;;5007886;28;114629;-74